Airfield :
LOGIN :

Register | Disclaimer

   EN    FR    IT 

 










Legend :    VFR   Marginal VFR   IFR   Intensive IFR   Very Intensive IFR
Visi :
Ceiling :
>= 8 km
>= 3000ft
5 to 8 km
1000 to 3000 ft
1500m to 5 km
500 to 1000 ft
800 to 1500m
200 to 500 ft
< 800m
< 200 ft
Symbols :   Thunderstorms  Fog  Heavy snow  Heavy precipitations  Wind > 20 kt
SIGMETs :     Misc.  Thunderstorms  Icing  Turbulence  Mountain Waves  Volcanic Ashes







- Airport Elevation : 326 ft
- IATA code : LCG
- Download approach charts


LECO - A Coruna

EXPIRED METARs :
  • 241430Z 02009KT 320V060 9999 FEW030 21/14 Q1023 NOSIG
  • 241400Z 02008KT 320V060 9999 FEW030 21/14 Q1023 NOSIG
  • 241330Z 03009KT 340V070 9999 FEW030 22/15 Q1023 NOSIG
  • 241300Z 03008KT 330V070 9999 FEW030 21/15 Q1023 NOSIG
  • 241230Z 04009KT 010V070 9999 SCT030 21/15 Q1023 NOSIG
  • 241200Z 03009KT 340V070 9999 SCT030 21/15 Q1024 NOSIG

Expired Forecast.
No reported NOTAMs for that airfield.



MET'MAP, your aeronautical weather chart ! - Copyright ORBIFLY December 2007 - Disclaimer

ORBIFLY MET'MAP TEAM :

Programming & Development : Alexandra Zaïnal
Concept & Development : Baudouin d'Aumeries
Co-Development & Prog : Marc-Olivier Méhu
Technical & hardware support : Manuel Goepfert

Contact : metmap@orbifly.com




SOURCES & CREDITS :

   NOAA